Time;durP1;ratioP1;P1;durP2;ratioP2;P2;SDS_P1;SDS_P2;PMS_P1;PMS_P2;Temp;Humidity;BMP_temperature;BMP_pressure;BME280_temperature;BME280_humidity;BME280_pressure;Samples;Min_cycle;Max_cycle;Signal;HPM_P1;HPM_P2
2022/07/23 00:01:24;;;;;;;10.40;6.05;;;;;;;;;;5041690;28;20074;-78
2022/07/23 00:03:54;;;;;;;12.60;6.40;;;;;;;;;;5049331;28;20470;-77
2022/07/23 00:06:21;;;;;;;11.07;6.00;;;;;;;;;;5051106;28;20063;-77
2022/07/23 00:08:48;;;;;;;11.70;6.55;;;;;;;;;;5051161;28;20125;-77
2022/07/23 00:11:14;;;;;;;8.80;5.90;;;;;;;;;;5050270;28;20115;-77
2022/07/23 00:13:41;;;;;;;8.85;6.55;;;;;;;;;;5050885;28;20429;-77
2022/07/23 00:16:07;;;;;;;10.02;6.80;;;;;;;;;;5052700;28;20139;-75
2022/07/23 00:18:34;;;;;;;13.20;6.30;;;;;;;;;;5047776;28;20073;-77
2022/07/23 00:21:00;;;;;;;12.25;6.25;;;;;;;;;;5050709;28;20095;-78
2022/07/23 00:23:28;;;;;;;8.25;5.70;;;;;;;;;;5050683;28;20045;-78
2022/07/23 00:25:55;;;;;;;9.23;6.15;;;;;;;;;;5051534;28;20068;-77
2022/07/23 00:28:21;;;;;;;7.13;5.90;;;;;;;;;;5050651;28;20084;-77
2022/07/23 00:30:48;;;;;;;9.18;6.45;;;;;;;;;;5050786;28;20045;-77
2022/07/23 00:33:14;;;;;;;9.75;6.53;;;;;;;;;;5047807;28;20059;-77
2022/07/23 00:35:42;;;;;;;8.32;6.10;;;;;;;;;;5050699;28;20502;-77
2022/07/23 00:38:09;;;;;;;7.72;6.22;;;;;;;;;;5050598;28;20122;-77
2022/07/23 00:40:36;;;;;;;10.68;6.38;;;;;;;;;;5049109;28;20490;-77
2022/07/23 00:43:03;;;;;;;9.45;6.60;;;;;;;;;;5048728;28;20087;-78
2022/07/23 00:45:30;;;;;;;15.57;6.90;;;;;;;;;;5050393;28;20528;-79
2022/07/23 00:47:57;;;;;;;17.58;6.88;;;;;;;;;;5046745;28;20056;-78
2022/07/23 00:50:23;;;;;;;10.63;6.60;;;;;;;;;;5049476;28;20080;-76
2022/07/23 00:52:50;;;;;;;8.40;6.38;;;;;;;;;;5049611;28;20095;-78
2022/07/23 00:55:19;;;;;;;10.05;6.35;;;;;;;;;;5051092;28;20057;-78
2022/07/23 00:57:46;;;;;;;12.50;6.60;;;;;;;;;;5050918;28;20497;-77
2022/07/23 01:00:13;;;;;;;10.23;5.95;;;;;;;;;;5050646;28;20059;-78
2022/07/23 01:02:40;;;;;;;10.13;6.20;;;;;;;;;;5047830;28;20163;-78
2022/07/23 01:05:07;;;;;;;12.30;6.22;;;;;;;;;;5047343;28;20080;-77
2022/07/23 01:07:33;;;;;;;10.25;6.53;;;;;;;;;;5049914;28;20084;-78
2022/07/23 01:10:00;;;;;;;8.05;6.20;;;;;;;;;;5050400;28;20041;-79
2022/07/23 01:12:27;;;;;;;9.60;6.03;;;;;;;;;;5049112;28;20048;-77
2022/07/23 01:14:57;;;;;;;9.18;5.82;;;;;;;;;;5049499;28;20096;-78
2022/07/23 01:17:23;;;;;;;8.93;6.30;;;;;;;;;;5031254;28;20135;-77
2022/07/23 01:19:50;;;;;;;11.38;6.03;;;;;;;;;;5046701;28;20080;-78
2022/07/23 01:22:18;;;;;;;9.85;6.80;;;;;;;;;;5050524;28;20341;-78
2022/07/23 01:24:44;;;;;;;8.18;6.75;;;;;;;;;;5050505;28;20099;-78
2022/07/23 01:27:12;;;;;;;11.48;6.45;;;;;;;;;;5050078;28;20279;-78
2022/07/23 01:29:39;;;;;;;8.10;6.13;;;;;;;;;;5050636;28;20041;-78
2022/07/23 01:32:06;;;;;;;15.00;6.72;;;;;;;;;;5061264;28;20040;-79
2022/07/23 01:34:32;;;;;;;8.85;6.40;;;;;;;;;;5071074;28;20057;-79
2022/07/23 01:36:59;;;;;;;9.02;6.50;;;;;;;;;;5069559;28;20052;-77
2022/07/23 01:39:25;;;;;;;13.43;6.72;;;;;;;;;;5050957;28;20267;-77
2022/07/23 01:41:51;;;;;;;10.13;6.55;;;;;;;;;;5049099;28;20079;-78
2022/07/23 01:44:18;;;;;;;8.43;6.60;;;;;;;;;;5048514;28;20090;-77
2022/07/23 01:46:45;;;;;;;14.25;6.78;;;;;;;;;;5030729;28;20052;-78
2022/07/23 01:49:11;;;;;;;9.27;6.88;;;;;;;;;;5048119;28;20049;-77
2022/07/23 01:51:59;;;;;;;10.40;6.85;;;;;;;;;;5047593;28;20493;-78
2022/07/23 01:54:24;;;;;;;12.18;6.75;;;;;;;;;;5048596;28;20516;-78
2022/07/23 01:56:50;;;;;;;7.50;6.22;;;;;;;;;;5030777;28;20525;-79
2022/07/23 01:59:17;;;;;;;10.52;6.15;;;;;;;;;;5050316;28;20081;-78
2022/07/23 02:01:43;;;;;;;12.57;7.03;;;;;;;;;;5051656;28;20091;-78
2022/07/23 02:04:10;;;;;;;11.07;6.20;;;;;;;;;;5050685;28;20412;-77
2022/07/23 02:06:36;;;;;;;11.20;6.60;;;;;;;;;;5051793;28;20045;-78
2022/07/23 02:09:02;;;;;;;9.00;6.53;;;;;;;;;;5052766;28;20501;-78
2022/07/23 02:11:29;;;;;;;8.13;6.18;;;;;;;;;;5052328;28;20107;-77
2022/07/23 02:13:56;;;;;;;10.68;6.75;;;;;;;;;;5050721;28;20141;-77
2022/07/23 02:16:22;;;;;;;12.82;6.13;;;;;;;;;;5051887;28;20087;-77
2022/07/23 02:18:49;;;;;;;10.10;6.07;;;;;;;;;;5047717;28;20488;-78
2022/07/23 02:21:17;;;;;;;11.43;6.28;;;;;;;;;;5051668;28;20528;-77
2022/07/23 02:23:43;;;;;;;11.80;6.18;;;;;;;;;;5052644;28;20068;-79
2022/07/23 02:26:09;;;;;;;14.45;6.25;;;;;;;;;;5053022;28;20049;-77
2022/07/23 02:28:41;;;;;;;8.13;6.47;;;;;;;;;;5052343;28;20177;-76
2022/07/23 02:31:10;;;;;;;10.43;6.43;;;;;;;;;;5052016;28;20176;-76
2022/07/23 02:33:37;;;;;;;11.15;6.53;;;;;;;;;;5050287;28;20080;-76
2022/07/23 02:36:04;;;;;;;9.95;6.20;;;;;;;;;;5052554;28;20080;-76
2022/07/23 02:38:31;;;;;;;9.73;6.50;;;;;;;;;;5053028;28;20131;-77
2022/07/23 02:40:57;;;;;;;10.50;7.00;;;;;;;;;;5051886;28;20075;-76
2022/07/23 02:43:23;;;;;;;11.75;6.22;;;;;;;;;;5051926;28;20135;-77
2022/07/23 02:45:50;;;;;;;8.25;6.00;;;;;;;;;;5051437;28;20103;-78
2022/07/23 02:48:16;;;;;;;9.73;6.47;;;;;;;;;;5049801;28;20049;-77
2022/07/23 02:50:43;;;;;;;11.55;6.80;;;;;;;;;;5050624;28;20053;-76
2022/07/23 02:53:09;;;;;;;9.15;6.68;;;;;;;;;;5052068;28;20132;-77
2022/07/23 02:55:36;;;;;;;10.05;6.47;;;;;;;;;;5052189;28;20136;-78
2022/07/23 02:58:03;;;;;;;10.10;7.00;;;;;;;;;;5051611;28;20148;-78
2022/07/23 03:00:29;;;;;;;9.55;6.85;;;;;;;;;;5054507;28;20084;-77
2022/07/23 03:02:56;;;;;;;9.10;6.75;;;;;;;;;;5050763;28;20126;-77
2022/07/23 03:05:22;;;;;;;10.63;7.13;;;;;;;;;;5050820;28;20507;-77
2022/07/23 03:07:49;;;;;;;12.02;6.85;;;;;;;;;;5051493;28;20045;-77
2022/07/23 03:10:15;;;;;;;10.23;7.22;;;;;;;;;;5051378;28;20072;-78
2022/07/23 03:12:41;;;;;;;11.98;7.00;;;;;;;;;;5050011;28;20053;-77
2022/07/23 03:15:08;;;;;;;8.07;6.90;;;;;;;;;;5051846;28;20092;-78
2022/07/23 03:17:35;;;;;;;7.88;6.72;;;;;;;;;;5050624;28;20081;-78
2022/07/23 03:20:01;;;;;;;15.57;6.60;;;;;;;;;;5048039;28;20084;-78
2022/07/23 03:22:27;;;;;;;9.77;6.80;;;;;;;;;;5050751;28;20130;-76
2022/07/23 03:24:54;;;;;;;12.60;7.93;;;;;;;;;;5051556;28;20416;-78
2022/07/23 03:27:30;;;;;;;9.43;7.35;;;;;;;;;;5051728;28;20045;-78
2022/07/23 03:29:57;;;;;;;10.43;7.40;;;;;;;;;;5051133;28;20079;-77
2022/07/23 03:32:24;;;;;;;9.52;7.10;;;;;;;;;;5049941;28;20125;-77
2022/07/23 03:34:50;;;;;;;13.10;8.00;;;;;;;;;;5050059;28;20634;-78
2022/07/23 03:37:17;;;;;;;10.02;8.00;;;;;;;;;;5053088;28;20049;-78
2022/07/23 03:39:43;;;;;;;9.98;7.18;;;;;;;;;;5051943;28;20059;-78
2022/07/23 03:42:10;;;;;;;8.45;6.38;;;;;;;;;;5051471;28;20137;-77
2022/07/23 03:44:40;;;;;;;14.32;7.57;;;;;;;;;;5050833;28;20139;-76
2022/07/23 03:47:06;;;;;;;9.98;7.35;;;;;;;;;;5050423;28;20139;-77
2022/07/23 03:49:33;;;;;;;13.00;7.13;;;;;;;;;;5048491;28;20049;-77
2022/07/23 03:52:00;;;;;;;11.23;6.63;;;;;;;;;;5050106;28;20075;-77
2022/07/23 03:54:26;;;;;;;14.13;7.10;;;;;;;;;;5049871;28;20056;-78
2022/07/23 03:56:53;;;;;;;12.30;7.20;;;;;;;;;;5049888;28;20053;-77
2022/07/23 03:59:19;;;;;;;13.60;7.88;;;;;;;;;;5050583;28;20063;-78
2022/07/23 04:01:49;;;;;;;9.73;7.28;;;;;;;;;;5048231;28;20517;-77
2022/07/23 04:04:16;;;;;;;14.10;7.65;;;;;;;;;;5048080;28;20045;-78
2022/07/23 04:06:42;;;;;;;9.85;7.45;;;;;;;;;;5049901;28;20127;-77
2022/07/23 04:09:09;;;;;;;10.98;7.03;;;;;;;;;;5051069;28;20089;-76
2022/07/23 04:11:35;;;;;;;12.20;7.85;;;;;;;;;;5049862;28;20049;-76
2022/07/23 04:14:02;;;;;;;11.18;8.02;;;;;;;;;;5050086;28;20139;-77
2022/07/23 04:16:31;;;;;;;13.18;7.60;;;;;;;;;;5049861;28;20128;-77
2022/07/23 04:19:00;;;;;;;11.25;7.85;;;;;;;;;;5030239;28;20526;-78
2022/07/23 04:21:27;;;;;;;9.48;7.60;;;;;;;;;;5048655;28;20048;-78
2022/07/23 04:23:53;;;;;;;10.95;7.80;;;;;;;;;;5050380;28;20059;-76
2022/07/23 04:26:21;;;;;;;11.57;7.68;;;;;;;;;;5050923;28;20071;-79
2022/07/23 04:28:47;;;;;;;12.25;7.75;;;;;;;;;;5050244;28;20128;-77
2022/07/23 04:31:13;;;;;;;12.57;8.02;;;;;;;;;;5049202;28;20068;-78
2022/07/23 04:33:40;;;;;;;15.77;7.75;;;;;;;;;;5049160;28;20123;-77
2022/07/23 04:36:06;;;;;;;13.90;7.68;;;;;;;;;;5050342;28;20636;-77
2022/07/23 04:38:33;;;;;;;10.82;7.80;;;;;;;;;;5051438;28;20120;-78
2022/07/23 04:41:00;;;;;;;10.75;7.20;;;;;;;;;;5049740;28;20111;-77
2022/07/23 04:43:26;;;;;;;11.05;7.40;;;;;;;;;;5049723;28;20072;-77
2022/07/23 04:45:53;;;;;;;9.57;7.80;;;;;;;;;;5052209;28;20057;-77
2022/07/23 04:48:20;;;;;;;15.10;7.72;;;;;;;;;;5051388;28;20091;-78
2022/07/23 04:50:46;;;;;;;11.07;7.80;;;;;;;;;;5049616;28;20045;-78
2022/07/23 04:53:13;;;;;;;15.95;8.52;;;;;;;;;;5032315;28;20223;-78
2022/07/23 04:55:39;;;;;;;13.00;8.50;;;;;;;;;;5051880;28;20112;-76
2022/07/23 04:58:05;;;;;;;14.10;7.82;;;;;;;;;;5053701;28;20598;-78
2022/07/23 05:00:32;;;;;;;12.98;8.60;;;;;;;;;;5057991;28;20079;-76
2022/07/23 05:02:58;;;;;;;12.55;8.57;;;;;;;;;;5066709;28;20053;-77
2022/07/23 05:05:25;;;;;;;11.52;8.10;;;;;;;;;;5069556;28;20047;-78
2022/07/23 05:07:51;;;;;;;14.40;8.70;;;;;;;;;;5068774;28;20051;-77
2022/07/23 05:10:17;;;;;;;14.35;9.30;;;;;;;;;;5031960;28;20069;-77
2022/07/23 05:12:44;;;;;;;12.98;8.75;;;;;;;;;;5048269;28;20102;-78
2022/07/23 05:15:10;;;;;;;12.90;9.05;;;;;;;;;;5050027;28;20095;-78
2022/07/23 05:17:37;;;;;;;14.80;9.27;;;;;;;;;;5049299;28;20158;-77
2022/07/23 05:20:03;;;;;;;18.40;10.38;;;;;;;;;;5047493;28;20103;-78
2022/07/23 05:22:30;;;;;;;17.20;10.23;;;;;;;;;;5050624;28;20107;-78
2022/07/23 05:24:56;;;;;;;16.10;10.20;;;;;;;;;;5049894;28;20049;-77
2022/07/23 05:27:23;;;;;;;15.93;10.63;;;;;;;;;;5049418;28;20163;-78
2022/07/23 05:29:49;;;;;;;14.38;9.52;;;;;;;;;;5049169;28;20140;-77
2022/07/23 05:32:16;;;;;;;16.45;10.10;;;;;;;;;;5030513;28;20049;-78
2022/07/23 05:34:42;;;;;;;16.27;10.27;;;;;;;;;;5031592;28;20052;-78
2022/07/23 05:37:08;;;;;;;17.35;10.02;;;;;;;;;;5060933;28;20125;-79
2022/07/23 05:39:35;;;;;;;17.73;9.75;;;;;;;;;;5052281;28;20076;-79
2022/07/23 05:42:01;;;;;;;15.20;9.60;;;;;;;;;;5053666;28;20063;-77
2022/07/23 05:44:28;;;;;;;19.77;9.68;;;;;;;;;;5046899;28;20116;-79
2022/07/23 05:47:00;;;;;;;18.20;9.50;;;;;;;;;;5049594;28;20049;-79
2022/07/23 05:49:26;;;;;;;16.70;9.27;;;;;;;;;;5044315;28;20091;-79
2022/07/23 05:51:52;;;;;;;17.20;9.07;;;;;;;;;;5048257;28;20052;-78
2022/07/23 05:54:19;;;;;;;15.80;8.82;;;;;;;;;;5047871;28;20355;-76
2022/07/23 05:56:45;;;;;;;15.50;8.05;;;;;;;;;;5048180;28;20095;-78
2022/07/23 05:59:12;;;;;;;13.35;8.60;;;;;;;;;;5047049;28;20505;-78
2022/07/23 06:01:39;;;;;;;12.18;8.45;;;;;;;;;;5047925;28;20502;-77
2022/07/23 06:04:05;;;;;;;12.85;7.78;;;;;;;;;;5043514;28;20065;-79
2022/07/23 06:06:32;;;;;;;11.82;7.78;;;;;;;;;;5048589;28;20092;-79
2022/07/23 06:08:58;;;;;;;10.32;7.20;;;;;;;;;;5042642;28;20048;-77
2022/07/23 06:11:25;;;;;;;16.15;8.25;;;;;;;;;;5026605;28;20460;-76
2022/07/23 06:13:52;;;;;;;14.40;7.35;;;;;;;;;;5042503;28;20049;-78
2022/07/23 06:16:18;;;;;;;14.23;7.35;;;;;;;;;;5042090;28;20087;-77
2022/07/23 06:18:45;;;;;;;15.00;8.27;;;;;;;;;;5043307;28;20049;-77
2022/07/23 06:21:11;;;;;;;13.57;7.85;;;;;;;;;;5043631;28;20462;-78
2022/07/23 06:23:57;;;;;;;11.27;7.60;;;;;;;;;;5046694;28;20527;-77
2022/07/23 06:26:24;;;;;;;10.75;7.38;;;;;;;;;;5046979;28;20052;-77
2022/07/23 06:28:50;;;;;;;12.38;7.47;;;;;;;;;;5048402;28;20143;-75
2022/07/23 06:31:17;;;;;;;11.02;7.25;;;;;;;;;;5046251;28;20071;-77
2022/07/23 06:33:43;;;;;;;12.25;6.93;;;;;;;;;;5055056;28;20110;-76
2022/07/23 06:36:10;;;;;;;14.23;7.28;;;;;;;;;;5030124;28;20112;-77
2022/07/23 06:38:36;;;;;;;11.98;6.97;;;;;;;;;;5027637;28;20140;-75
2022/07/23 06:41:02;;;;;;;12.88;7.28;;;;;;;;;;5043827;28;20060;-77
2022/07/23 06:43:30;;;;;;;12.48;7.20;;;;;;;;;;5042525;28;20455;-75
2022/07/23 06:45:56;;;;;;;10.75;6.25;;;;;;;;;;5045227;28;20106;-75
2022/07/23 06:48:23;;;;;;;14.63;6.88;;;;;;;;;;5044909;28;20383;-77
2022/07/23 06:50:49;;;;;;;10.82;6.28;;;;;;;;;;5045615;28;20045;-77
2022/07/23 06:53:16;;;;;;;12.90;6.47;;;;;;;;;;5046828;28;20096;-76
2022/07/23 06:55:42;;;;;;;9.60;6.43;;;;;;;;;;5048040;28;20135;-77
2022/07/23 06:58:09;;;;;;;11.57;6.78;;;;;;;;;;5046763;28;20053;-77
2022/07/23 07:00:36;;;;;;;13.45;6.90;;;;;;;;;;5048758;28;20429;-78
2022/07/23 07:03:02;;;;;;;11.68;6.63;;;;;;;;;;5046665;28;20346;-77
2022/07/23 07:05:29;;;;;;;9.10;6.10;;;;;;;;;;5049927;28;20053;-78
2022/07/23 07:07:55;;;;;;;10.70;6.60;;;;;;;;;;5051893;28;20080;-78
2022/07/23 07:10:22;;;;;;;12.13;6.38;;;;;;;;;;5050114;28;20533;-78
2022/07/23 07:12:48;;;;;;;13.35;6.38;;;;;;;;;;5046041;28;20052;-80
2022/07/23 07:15:15;;;;;;;9.85;5.90;;;;;;;;;;5048876;28;20077;-77
2022/07/23 07:17:42;;;;;;;15.27;5.97;;;;;;;;;;5032478;28;20202;-77
2022/07/23 07:20:09;;;;;;;9.82;6.75;;;;;;;;;;5047144;28;20068;-78
2022/07/23 07:22:35;;;;;;;10.70;5.78;;;;;;;;;;5047539;28;20549;-79
2022/07/23 07:25:02;;;;;;;12.85;5.88;;;;;;;;;;5047122;28;20088;-76
2022/07/23 07:27:28;;;;;;;14.07;6.43;;;;;;;;;;5046606;28;20106;-76
2022/07/23 07:29:55;;;;;;;12.30;6.55;;;;;;;;;;5027402;28;20747;-77
2022/07/23 07:32:21;;;;;;;14.80;5.75;;;;;;;;;;5045726;28;20056;-77
2022/07/23 07:35:08;;;;;;;11.85;6.78;;;;;;;;;;5044625;28;20091;-78
2022/07/23 07:37:34;;;;;;;9.82;5.60;;;;;;;;;;5051894;28;20107;-78
2022/07/23 07:40:00;;;;;;;10.20;6.45;;;;;;;;;;5056920;28;20053;-79
2022/07/23 07:42:27;;;;;;;14.27;6.18;;;;;;;;;;5049578;28;20052;-76
2022/07/23 07:44:53;;;;;;;11.90;6.10;;;;;;;;;;5050410;28;20128;-78
2022/07/23 07:47:20;;;;;;;12.52;5.63;;;;;;;;;;5050578;28;20099;-77
2022/07/23 07:49:46;;;;;;;9.95;5.97;;;;;;;;;;5034190;28;20103;-79
2022/07/23 07:52:13;;;;;;;8.65;5.30;;;;;;;;;;5054038;28;20045;-79
2022/07/23 07:54:39;;;;;;;12.10;6.25;;;;;;;;;;5054205;28;20048;-80
2022/07/23 07:57:06;;;;;;;9.25;5.30;;;;;;;;;;5052483;28;20068;-79
2022/07/23 07:59:36;;;;;;;14.20;5.72;;;;;;;;;;5052675;28;20061;-79
2022/07/23 08:02:02;;;;;;;8.80;6.07;;;;;;;;;;5053349;28;20104;-80
2022/07/23 08:04:37;;;;;;;8.00;5.82;;;;;;;;;;5049604;28;20060;-80
2022/07/23 08:07:03;;;;;;;13.30;5.38;;;;;;;;;;5053781;28;20064;-81
2022/07/23 08:09:29;;;;;;;8.02;5.45;;;;;;;;;;5055529;28;20060;-81
2022/07/23 08:11:56;;;;;;;8.38;5.50;;;;;;;;;;5055077;28;20080;-80
2022/07/23 08:14:22;;;;;;;13.00;6.38;;;;;;;;;;5052213;28;20770;-80
2022/07/23 08:16:49;;;;;;;10.35;6.10;;;;;;;;;;5054495;28;20069;-81
2022/07/23 08:19:35;;;;;;;10.70;6.07;;;;;;;;;;5056166;28;20139;-81
2022/07/23 08:22:02;;;;;;;11.25;5.90;;;;;;;;;;5054800;28;20143;-80
2022/07/23 08:24:28;;;;;;;9.27;5.65;;;;;;;;;;5044079;28;20053;-81
2022/07/23 08:26:55;;;;;;;8.05;5.50;;;;;;;;;;5055965;28;20580;-81
2022/07/23 08:29:21;;;;;;;14.07;6.07;;;;;;;;;;5054203;28;20049;-80
2022/07/23 08:31:52;;;;;;;9.52;5.68;;;;;;;;;;5054215;28;20055;-81
2022/07/23 08:34:19;;;;;;;11.52;5.93;;;;;;;;;;5036817;28;20076;-82
2022/07/23 08:36:45;;;;;;;10.30;6.10;;;;;;;;;;5066781;28;20057;-81
2022/07/23 08:39:11;;;;;;;9.10;6.20;;;;;;;;;;5067955;28;20045;-81
2022/07/23 08:41:39;;;;;;;9.13;5.85;;;;;;;;;;5064687;28;20060;-79
2022/07/23 08:44:07;;;;;;;10.30;5.55;;;;;;;;;;5053695;28;20051;-80
2022/07/23 08:46:33;;;;;;;13.20;6.65;;;;;;;;;;5051890;28;20109;-78
2022/07/23 08:49:04;;;;;;;8.60;6.60;;;;;;;;;;5050151;28;20049;-78
2022/07/23 08:51:31;;;;;;;9.45;6.40;;;;;;;;;;5052962;28;20049;-79
2022/07/23 08:53:58;;;;;;;12.80;5.85;;;;;;;;;;5053090;28;20069;-80
2022/07/23 08:56:25;;;;;;;8.90;6.07;;;;;;;;;;5057500;28;20063;-78
2022/07/23 08:58:53;;;;;;;12.70;6.43;;;;;;;;;;5051798;28;20080;-79
2022/07/23 09:01:19;;;;;;;9.57;6.30;;;;;;;;;;5056443;28;20095;-80
2022/07/23 09:03:45;;;;;;;8.75;6.55;;;;;;;;;;5057274;28;20057;-81
2022/07/23 09:06:12;;;;;;;10.98;6.80;;;;;;;;;;5057716;28;20033;-81
2022/07/23 09:08:42;;;;;;;13.77;6.60;;;;;;;;;;5060120;28;20045;-80
2022/07/23 09:11:10;;;;;;;9.05;6.47;;;;;;;;;;5058539;28;20053;-81
2022/07/23 09:13:40;;;;;;;10.90;6.03;;;;;;;;;;5064034;28;20049;-78
2022/07/23 09:16:11;;;;;;;7.13;4.75;;;;;;;;;;5059859;28;20049;-81
2022/07/23 09:18:41;;;;;;;10.30;5.57;;;;;;;;;;5059232;28;20041;-79
2022/07/23 09:21:07;;;;;;;9.77;5.00;;;;;;;;;;5057827;28;20057;-79
2022/07/23 09:23:38;;;;;;;8.75;5.40;;;;;;;;;;5057206;28;20049;-79
2022/07/23 09:26:16;;;;;;;7.38;5.00;;;;;;;;;;5058172;28;20524;-80
2022/07/23 09:28:56;;;;;;;9.15;5.55;;;;;;;;;;5053926;28;20060;-79
2022/07/23 09:31:24;;;;;;;9.77;5.03;;;;;;;;;;5054318;28;20048;-80
2022/07/23 09:33:50;;;;;;;10.63;5.20;;;;;;;;;;5054702;28;20049;-79
2022/07/23 09:36:26;;;;;;;8.75;4.68;;;;;;;;;;5057122;28;20655;-80
2022/07/23 09:38:53;;;;;;;13.05;5.25;;;;;;;;;;5070579;28;20107;-79
2022/07/23 09:41:19;;;;;;;10.20;5.93;;;;;;;;;;5069367;28;20059;-79
2022/07/23 09:43:46;;;;;;;14.05;5.10;;;;;;;;;;5067006;28;20049;-80
2022/07/23 09:46:22;;;;;;;11.48;5.60;;;;;;;;;;5058560;28;20108;-81
2022/07/23 09:48:51;;;;;;;10.15;6.07;;;;;;;;;;5052041;28;20052;-80
2022/07/23 09:51:36;;;;;;;9.77;4.90;;;;;;;;;;5056465;28;20110;-79
2022/07/23 09:54:02;;;;;;;7.78;5.22;;;;;;;;;;5057151;28;20045;-80
2022/07/23 09:56:30;;;;;;;12.88;5.68;;;;;;;;;;5034997;28;20065;-80
2022/07/23 09:59:08;;;;;;;9.60;4.55;;;;;;;;;;5037239;28;20533;-80
2022/07/23 10:01:35;;;;;;;9.43;4.75;;;;;;;;;;5036929;28;20097;-79
2022/07/23 10:04:02;;;;;;;10.93;5.30;;;;;;;;;;5033867;28;20149;-79
2022/07/23 10:06:29;;;;;;;11.32;5.47;;;;;;;;;;5036376;28;20049;-80
2022/07/23 10:08:58;;;;;;;8.30;5.50;;;;;;;;;;5035407;28;20592;-80
2022/07/23 10:11:25;;;;;;;12.75;5.28;;;;;;;;;;5018003;28;20525;-79
2022/07/23 10:13:55;;;;;;;11.65;5.88;;;;;;;;;;5037965;28;20109;-78
2022/07/23 10:16:22;;;;;;;7.68;5.43;;;;;;;;;;5036694;28;20042;-79
2022/07/23 10:18:53;;;;;;;11.68;5.35;;;;;;;;;;5036230;28;20407;-79
2022/07/23 10:21:36;;;;;;;9.45;5.95;;;;;;;;;;5054961;28;20054;-79
2022/07/23 10:24:12;;;;;;;10.40;5.30;;;;;;;;;;5013404;28;20045;-79
2022/07/23 10:26:49;;;;;;;14.77;5.63;;;;;;;;;;5015555;28;20466;-79
2022/07/23 10:29:42;;;;;;;7.70;5.38;;;;;;;;;;5009214;28;20125;-78
2022/07/23 10:32:17;;;;;;;11.80;5.95;;;;;;;;;;4972378;28;20124;-80
2022/07/23 10:34:49;;;;;;;16.52;6.00;;;;;;;;;;5014018;28;20061;-78
2022/07/23 10:37:28;;;;;;;8.55;5.93;;;;;;;;;;5015908;28;20056;-77
2022/07/23 10:40:11;;;;;;;10.43;6.07;;;;;;;;;;5015606;28;20061;-78
2022/07/23 10:42:38;;;;;;;12.07;7.00;;;;;;;;;;5011523;28;20057;-79
2022/07/23 10:45:23;;;;;;;13.68;7.30;;;;;;;;;;5016658;28;20046;-78
2022/07/23 10:47:50;;;;;;;13.80;7.63;;;;;;;;;;5015049;28;20045;-78
2022/07/23 10:50:20;;;;;;;15.02;7.20;;;;;;;;;;5014234;28;20668;-79
2022/07/23 10:53:06;;;;;;;18.13;7.93;;;;;;;;;;4999735;28;20806;-79
2022/07/23 10:55:32;;;;;;;17.20;8.38;;;;;;;;;;5005884;28;20111;-79
2022/07/23 10:57:59;;;;;;;15.35;8.55;;;;;;;;;;5014929;28;20089;-79
2022/07/23 11:00:28;;;;;;;22.38;9.13;;;;;;;;;;5017703;28;20054;-78
2022/07/23 11:02:56;;;;;;;14.10;9.18;;;;;;;;;;5009084;28;20100;-77
2022/07/23 11:05:23;;;;;;;15.43;8.38;;;;;;;;;;5013876;28;20081;-80
2022/07/23 11:08:14;;;;;;;11.05;7.97;;;;;;;;;;5020638;28;20111;-81
2022/07/23 11:10:41;;;;;;;14.15;8.32;;;;;;;;;;5021607;28;20037;-80
2022/07/23 11:13:26;;;;;;;12.65;8.05;;;;;;;;;;5025553;28;20050;-78
2022/07/23 11:16:02;;;;;;;16.27;8.73;;;;;;;;;;5019488;28;20073;-79
2022/07/23 11:18:44;;;;;;;12.95;7.65;;;;;;;;;;5016342;28;20054;-79
2022/07/23 11:21:26;;;;;;;14.75;8.05;;;;;;;;;;5021119;28;20046;-80
2022/07/23 11:24:03;;;;;;;14.45;7.85;;;;;;;;;;5022133;28;20103;-78
2022/07/23 11:26:41;;;;;;;15.15;8.18;;;;;;;;;;5027298;28;20050;-79
2022/07/23 11:29:26;;;;;;;14.40;7.82;;;;;;;;;;5020750;28;20057;-78
2022/07/23 11:31:56;;;;;;;10.82;7.85;;;;;;;;;;5022169;28;20046;-79
2022/07/23 11:34:33;;;;;;;14.48;7.82;;;;;;;;;;5019551;28;20050;-79
2022/07/23 11:37:00;;;;;;;9.52;6.97;;;;;;;;;;5018287;28;20061;-77
2022/07/23 11:39:27;;;;;;;11.30;7.30;;;;;;;;;;5017072;28;20074;-79
2022/07/23 11:41:57;;;;;;;11.38;7.75;;;;;;;;;;5016938;28;20165;-78
2022/07/23 11:44:28;;;;;;;9.43;6.72;;;;;;;;;;5017285;28;20050;-80
2022/07/23 11:47:04;;;;;;;10.52;6.88;;;;;;;;;;5015794;28;20081;-80
2022/07/23 11:49:31;;;;;;;12.82;7.22;;;;;;;;;;5011819;28;20136;-80
2022/07/23 11:52:07;;;;;;;12.32;7.30;;;;;;;;;;5016176;28;20046;-79
2022/07/23 11:54:34;;;;;;;11.10;7.43;;;;;;;;;;5008521;28;20072;-79
2022/07/23 11:57:05;;;;;;;11.02;7.78;;;;;;;;;;5017381;28;20053;-79
2022/07/23 11:59:33;;;;;;;12.38;8.98;;;;;;;;;;5034519;28;20041;-81
2022/07/23 12:02:00;;;;;;;12.05;8.57;;;;;;;;;;5038290;28;20067;-79
2022/07/23 12:04:39;;;;;;;11.75;8.00;;;;;;;;;;5023424;28;20517;-79
2022/07/23 12:07:24;;;;;;;12.95;8.60;;;;;;;;;;5015558;28;20054;-80
2022/07/23 12:09:50;;;;;;;12.32;8.60;;;;;;;;;;5016506;28;20516;-79
2022/07/23 12:12:17;;;;;;;11.75;8.15;;;;;;;;;;5013899;28;20411;-78
2022/07/23 12:15:02;;;;;;;14.55;9.50;;;;;;;;;;5015924;28;20053;-80
2022/07/23 12:17:30;;;;;;;13.63;9.55;;;;;;;;;;5016095;28;20076;-80
2022/07/23 12:19:58;;;;;;;13.13;9.00;;;;;;;;;;5014167;28;20050;-80
2022/07/23 12:22:26;;;;;;;12.18;9.38;;;;;;;;;;5015028;28;20471;-79
2022/07/23 12:24:59;;;;;;;12.20;9.32;;;;;;;;;;5014682;28;20050;-78
2022/07/23 12:27:26;;;;;;;12.55;8.65;;;;;;;;;;5001921;28;20454;-79
2022/07/23 12:29:52;;;;;;;12.88;9.57;;;;;;;;;;5017848;28;20491;-79
2022/07/23 12:32:26;;;;;;;10.85;8.10;;;;;;;;;;5016171;28;20442;-78
2022/07/23 12:35:05;;;;;;;12.73;8.68;;;;;;;;;;5016136;28;20076;-79
2022/07/23 12:37:40;;;;;;;13.18;8.75;;;;;;;;;;5019301;28;20084;-79
2022/07/23 12:40:27;;;;;;;14.40;9.13;;;;;;;;;;5017464;28;20054;-79
2022/07/23 12:42:55;;;;;;;12.95;8.35;;;;;;;;;;5016565;28;20096;-80
2022/07/23 12:45:22;;;;;;;11.82;8.88;;;;;;;;;;5015118;28;20088;-79
2022/07/23 12:48:06;;;;;;;14.00;8.95;;;;;;;;;;5018103;28;20465;-78
2022/07/23 12:50:36;;;;;;;18.23;8.95;;;;;;;;;;5013786;28;20046;-79
2022/07/23 12:53:05;;;;;;;13.00;8.93;;;;;;;;;;5015210;28;20078;-78
2022/07/23 12:55:32;;;;;;;15.27;9.25;;;;;;;;;;5007904;28;20070;-79
2022/07/23 12:58:20;;;;;;;12.63;9.20;;;;;;;;;;5013735;28;20041;-79
2022/07/23 13:00:59;;;;;;;15.20;8.52;;;;;;;;;;5015924;28;20623;-79
2022/07/23 13:03:28;;;;;;;13.52;8.90;;;;;;;;;;5013841;28;20049;-79
2022/07/23 13:05:55;;;;;;;10.23;8.15;;;;;;;;;;5013940;28;20046;-79
2022/07/23 13:08:22;;;;;;;12.40;7.72;;;;;;;;;;4998060;28;20080;-79
2022/07/23 13:10:51;;;;;;;12.00;7.32;;;;;;;;;;5016747;28;20050;-79
2022/07/23 13:13:20;;;;;;;14.77;7.28;;;;;;;;;;5018267;28;20042;-78
2022/07/23 13:15:46;;;;;;;11.43;8.50;;;;;;;;;;5024791;28;20061;-78
2022/07/23 13:18:13;;;;;;;11.38;7.88;;;;;;;;;;5020063;28;20057;-78
2022/07/23 13:20:40;;;;;;;11.25;9.15;;;;;;;;;;4992501;28;20519;-78
2022/07/23 13:23:06;;;;;;;16.23;9.93;;;;;;;;;;5008838;28;20107;-78
2022/07/23 13:25:33;;;;;;;11.80;8.52;;;;;;;;;;5012743;28;20045;-79
2022/07/23 13:28:00;;;;;;;11.90;8.20;;;;;;;;;;5013677;28;20069;-79
2022/07/23 13:30:26;;;;;;;13.85;8.07;;;;;;;;;;5011301;28;20077;-78
2022/07/23 13:32:55;;;;;;;16.50;7.53;;;;;;;;;;4993025;28;20054;-79
2022/07/23 13:35:26;;;;;;;8.60;7.28;;;;;;;;;;5012558;28;20082;-79
2022/07/23 13:37:57;;;;;;;15.05;7.22;;;;;;;;;;5015423;28;20054;-79
2022/07/23 13:40:27;;;;;;;10.60;7.53;;;;;;;;;;5012955;28;20050;-77
2022/07/23 13:42:56;;;;;;;10.18;7.55;;;;;;;;;;4998376;28;20049;-78
2022/07/23 13:45:23;;;;;;;11.35;7.55;;;;;;;;;;5016788;28;20076;-79
2022/07/23 13:47:55;;;;;;;11.40;7.00;;;;;;;;;;4996876;28;20383;-79
2022/07/23 13:50:22;;;;;;;10.23;7.43;;;;;;;;;;5014159;28;20452;-79
2022/07/23 13:52:48;;;;;;;8.63;7.03;;;;;;;;;;5017086;28;20046;-77
2022/07/23 13:55:14;;;;;;;12.75;8.57;;;;;;;;;;5021088;28;20038;-80
2022/07/23 13:57:41;;;;;;;10.52;8.10;;;;;;;;;;5018859;28;20139;-79
2022/07/23 14:00:12;;;;;;;10.30;8.52;;;;;;;;;;5017653;28;20727;-79
2022/07/23 14:02:59;;;;;;;12.98;9.75;;;;;;;;;;4982005;28;20787;-79
2022/07/23 14:05:26;;;;;;;12.70;9.32;;;;;;;;;;4996959;28;20054;-79
2022/07/23 14:07:53;;;;;;;12.80;9.18;;;;;;;;;;4979577;28;20128;-78
2022/07/23 14:10:20;;;;;;;13.82;9.43;;;;;;;;;;4996675;28;20142;-79
2022/07/23 14:12:49;;;;;;;13.95;9.85;;;;;;;;;;4980143;28;20050;-77
2022/07/23 14:15:16;;;;;;;14.63;9.18;;;;;;;;;;5000376;28;20084;-79
2022/07/23 14:17:44;;;;;;;13.38;8.50;;;;;;;;;;5015227;28;20058;-78
2022/07/23 14:20:12;;;;;;;14.52;9.15;;;;;;;;;;5016657;28;20049;-80
2022/07/23 14:22:39;;;;;;;12.38;8.65;;;;;;;;;;5017184;28;20080;-79
2022/07/23 14:25:07;;;;;;;12.05;9.90;;;;;;;;;;5017950;28;20050;-79
2022/07/23 14:27:35;;;;;;;12.10;9.63;;;;;;;;;;5017081;28;20046;-80
2022/07/23 14:30:01;;;;;;;13.43;8.98;;;;;;;;;;5018281;28;20084;-80
2022/07/23 14:32:29;;;;;;;14.38;9.65;;;;;;;;;;5015761;28;20068;-79
2022/07/23 14:34:56;;;;;;;14.55;9.73;;;;;;;;;;4998368;28;20062;-80
2022/07/23 14:37:24;;;;;;;15.07;10.30;;;;;;;;;;5017256;28;20469;-79
2022/07/23 14:39:51;;;;;;;11.70;10.10;;;;;;;;;;5019616;28;20446;-78
2022/07/23 14:42:18;;;;;;;16.63;11.48;;;;;;;;;;5015787;28;20077;-78